Data for 12/28/2016

Time Sea-Level Adjusted Pressure Absolute Pressure Temperature Relative Humidity Dew Point   
(mb) (inHg) (mb) (inHg) (C) (F) (%) (C) (F)
00:05 1015 29.97 845 24.95 -3.5 25.7 49 -12.8 8.9
00:10 1015 29.97 845 24.95 -3.6 25.5 47 -13.3 8.1
00:15 1015 29.97 845 24.95 -3.7 25.4 48 -13.2 8.3
00:20 1015 29.97 845 24.95 -3.8 25.2 47 -13.5 7.7
00:25 1015 29.97 844 24.92 -3.7 25.3 47 -13.4 7.8
00:30 1015 29.97 845 24.95 -4 24.9 48 -13.4 7.9
00:35 1015 29.97 845 24.95 -4.1 24.5 48 -13.7 7.4
00:40 1015 29.97 845 24.95 -4.2 24.4 48 -13.6 7.6
00:45 1015 29.97 845 24.95 -4.4 24.1 49 -13.7 7.4
00:50 1015 29.97 845 24.95 -4.4 24.1 47 -14.2 6.4
00:55 1015 29.97 845 24.95 -4.1 24.7 45 -14.3 6.3
01:00 1015 29.97 845 24.95 -3.9 25.1 46 -13.9 7
01:05 1015 29.97 845 24.95 -4 24.9 46 -14.1 6.7
01:10 1015 29.97 845 24.95 -3.9 25 44 -14.4 6.1
01:15 1015 29.97 844 24.92 -3.7 25.3 44 -14.2 6.4
01:20 1015 29.97 844 24.92 -3.8 25.1 45 -14.2 6.5
01:25 1015 29.97 844 24.92 -4.1 24.7 45 -14.2 6.5
01:30 1015 29.97 844 24.92 -4.2 24.5 46 -14.2 6.5
01:35 1015 29.97 844 24.92 -4.3 24.4 46 -14.3 6.2
01:40 1015 29.97 844 24.92 -4.3 24.2 46 -14.2 6.4
01:45 1015 29.97 844 24.92 -4.5 23.9 46 -14.4 6.1
01:50 1015 29.97 844 24.92 -4.7 23.6 46 -14.5 5.9
01:55 1015 29.97 844 24.92 -4.6 23.7 46 -14.6 5.7
02:00 1015 29.97 844 24.92 -4.3 24.2 46 -14.4 6.1
02:05 1015 29.97 844 24.92 -4.2 24.5 45 -14.5 5.9
02:10 1015 29.97 844 24.92 -3.9 25 43 -14.6 5.7
02:15 1015 29.97 844 24.92 -3.6 25.4 43 -14.4 6.1
02:20 1015 29.97 844 24.92 -3.6 25.6 44 -14.2 6.4
02:25 1015 29.97 844 24.92 -3.5 25.7 44 -14.1 6.7
02:30 1015 29.97 844 24.92 -3.5 25.6 44 -14.1 6.7
02:35 1015 29.97 844 24.92 -3.5 25.7 44 -14 6.7
02:40 1015 29.97 844 24.92 -3.5 25.7 44 -14.1 6.6
02:45 1015 29.97 845 24.95 -3.6 25.6 45 -13.9 7.1
02:50 1015 29.97 845 24.95 -3.6 25.6 48 -13.2 8.2
02:55 1015 29.97 845 24.95 -3.5 25.7 51 -12.3 9.8
03:00 1015 29.97 845 24.95 -3.5 25.6 51 -12.2 10
03:05 1015 29.97 845 24.95 -3.7 25.3 51 -12.4 9.7
03:10 1015 29.97 845 24.95 -3.5 25.7 51 -12.3 9.8
03:15 1016 30 845 24.95 -3.4 25.8 51 -12.2 10.1
03:20 1016 30 845 24.95 -3.4 25.9 50 -12.3 9.8
03:25 1016 30 845 24.95 -3.3 26.1 50 -12.4 9.7
03:30 1016 30 845 24.95 -3.4 25.9 51 -12.2 10
03:35 1016 30 845 24.95 -3.6 25.5 51 -12.3 9.9
03:40 1016 30 845 24.95 -3.6 25.4 52 -12.1 10.2
03:45 1016 30 845 24.95 -3.6 25.5 53 -11.8 10.7
03:50 1016 30 845 24.95 -3.6 25.4 54 -11.6 11.2
03:55 1016 30 845 24.95 -3.6 25.5 55 -11.4 11.4
04:00 1016 30 845 24.95 -3.6 25.6 55 -11.3 11.7
04:05 1016 30 845 24.95 -3.6 25.6 55 -11.3 11.7
04:10 1016 30 845 24.95 -3.5 25.7 55 -11.3 11.6
04:15 1016 30 845 24.95 -3.4 25.9 55 -11.1 12
04:20 1016 30 845 24.95 -3.4 26 55 -11.3 11.7
04:25 1016 30 846 24.98 -3.3 26 54 -11.4 11.5
04:30 1017 30.03 846 24.98 -3.3 26 55 -11.1 12
04:35 1017 30.03 846 24.98 -3.5 25.7 58 -10.6 13
04:40 1017 30.03 846 24.98 -3.7 25.4 58 -10.9 12.4
04:45 1017 30.03 846 24.98 -3.6 25.4 58 -10.8 12.6
04:50 1017 30.03 846 24.98 -3.6 25.5 57 -10.9 12.3
04:55 1017 30.03 846 24.98 -3.6 25.5 57 -10.9 12.3
05:00 1017 30.03 846 24.98 -3.7 25.3 58 -10.8 12.6
05:05 1017 30.03 846 24.98 -3.9 25 60 -10.5 13
05:10 1017 30.03 846 24.98 -4.1 24.7 61 -10.6 13
05:15 1017 30.03 846 24.98 -4.1 24.6 61 -10.6 12.9
05:20 1017 30.03 846 24.98 -4.1 24.6 61 -10.6 13
05:25 1017 30.03 846 24.98 -4.3 24.3 59 -11.2 11.8
05:30 1017 30.03 846 24.98 -4.3 24.3 55 -12 10.5
05:35 1017 30.03 846 24.98 -4.1 24.6 51 -12.7 9.1
05:40 1017 30.03 847 25.01 -4 24.8 50 -13.1 8.4
05:45 1017 30.03 847 25.01 -4.1 24.7 49 -13.3 8.1
05:50 1018 30.06 847 25.01 -4.1 24.6 48 -13.6 7.5
05:55 1018 30.06 847 25.01 -4.1 24.7 49 -13.4 7.9
06:00 1018 30.06 847 25.01 -4.1 24.7 48 -13.5 7.6
06:05 1018 30.06 847 25.01 -4.1 24.6 48 -13.6 7.5
06:10 1018 30.06 847 25.01 -4.2 24.5 48 -13.7 7.3
06:15 1018 30.06 847 25.01 -4.2 24.4 48 -13.8 7.2
06:20 1018 30.06 847 25.01 -4.2 24.5 46 -14.1 6.6
06:25 1018 30.06 847 25.01 -4.1 24.6 45 -14.3 6.3
06:30 1018 30.06 847 25.01 -4.1 24.5 45 -14.5 5.9
06:35 1018 30.06 847 25.01 -4.1 24.6 44 -14.6 5.7
06:40 1018 30.06 847 25.01 -4.2 24.5 44 -14.6 5.7
06:45 1018 30.06 847 25.01 -4.2 24.4 44 -14.7 5.6
06:50 1018 30.06 847 25.01 -4.3 24.3 43 -15 5
06:55 1018 30.06 847 25.01 -4.2 24.4 42 -15.2 4.6
07:00 1018 30.06 847 25.01 -4.1 24.6 44 -14.7 5.5
07:05 1018 30.06 847 25.01 -4.2 24.4 44 -14.9 5.2
07:10 1018 30.06 847 25.01 -4.1 24.6 44 -14.8 5.4
07:15 1018 30.06 847 25.01 -4.2 24.4 44 -14.8 5.4
07:20 1018 30.06 847 25.01 -4.3 24.3 46 -14.4 6.1
07:25 1018 30.06 848 25.04 -4.4 24.1 45 -14.6 5.7
07:30 1018 30.06 848 25.04 -4.4 24.1 45 -14.7 5.6
07:35 1018 30.06 848 25.04 -4.5 23.9 45 -14.8 5.4
07:40 1018 30.06 848 25.04 -4.4 24 45 -14.6 5.7
07:45 1019 30.09 848 25.04 -4.4 24 45 -14.7 5.5
07:50 1019 30.09 848 25.04 -4.3 24.2 44 -14.8 5.4
07:55 1019 30.09 848 25.04 -4.2 24.4 45 -14.6 5.7
08:00 1019 30.09 848 25.04 -4.2 24.4 45 -14.4 6.1
08:05 1019 30.09 848 25.04 -4.2 24.4 44 -14.6 5.7
08:10 1019 30.09 848 25.04 -4.1 24.6 46 -14.2 6.5
08:15 1019 30.09 848 25.04 -4.2 24.5 45 -14.4 6.2
08:20 1019 30.09 848 25.04 -4.1 24.5 46 -14.2 6.4
08:25 1019 30.09 848 25.04 -4.2 24.5 46 -14.2 6.5
08:30 1019 30.09 848 25.04 -4.3 24.3 47 -14 6.7
08:35 1019 30.09 848 25.04 -4.4 24.1 46 -14.2 6.4
08:40 1019 30.09 848 25.04 -4.5 23.9 46 -14.4 6
08:45 1019 30.09 849 25.07 -4.6 23.8 46 -14.6 5.7
08:50 1019 30.09 849 25.07 -4.5 23.9 46 -14.3 6.2
08:55 1020 30.12 849 25.07 -4.5 23.9 47 -14.2 6.4
09:00 1020 30.12 849 25.07 -4.5 23.9 47 -14.1 6.6
09:05 1020 30.12 849 25.07 -4.4 24.1 47 -14.2 6.4
09:10 1020 30.12 849 25.07 -4.4 24.2 46 -14.3 6.3
09:15 1020 30.12 849 25.07 -4.4 24.1 47 -14.2 6.4
09:20 1020 30.12 849 25.07 -4.4 24.1 48 -13.9 6.9
09:25 1020 30.12 849 25.07 -4.3 24.2 47 -14 6.9
09:30 1020 30.12 849 25.07 -4.1 24.7 47 -13.9 7
09:35 1020 30.12 849 25.07 -3.9 25 46 -13.9 7
09:40 1020 30.12 849 25.07 -3.8 25.1 45 -14.1 6.7
09:45 1020 30.12 850 25.1 -3.6 25.6 44 -14.1 6.7
09:50 1020 30.12 850 25.1 -3.5 25.7 43 -14.3 6.2
09:55 1020 30.12 850 25.1 -3.2 26.2 41 -14.6 5.6
10:00 1021 30.15 850 25.1 -3.2 26.2 41 -14.7 5.6
10:05 1021 30.15 850 25.1 -3 26.6 40 -15 5.1
10:10 1021 30.15 850 25.1 -2.8 26.9 40 -14.8 5.3
10:15 1021 30.15 850 25.1 -2.8 26.9 40 -14.7 5.5
10:20 1021 30.15 850 25.1 -2.7 27.1 40 -14.6 5.7
10:25 1021 30.15 850 25.1 -2.7 27.1 41 -14.4 6.1
10:30 1021 30.15 850 25.1 -2.7 27.2 39 -14.9 5.2
10:35 1021 30.15 850 25.1 -2.8 27 40 -14.7 5.6
10:40 1021 30.15 850 25.1 -2.7 27.2 40 -14.6 5.8
10:45 1021 30.15 850 25.1 -2.5 27.5 40 -14.4 6
10:50 1021 30.15 850 25.1 -2.4 27.6 39 -14.7 5.6
10:55 1021 30.15 850 25.1 -2.4 27.7 38 -14.7 5.5
11:00 1021 30.15 850 25.1 -2.4 27.8 39 -14.5 5.9
11:05 1021 30.15 850 25.1 -2.3 27.9 38 -14.9 5.2
11:10 1021 30.15 850 25.1 -2.2 28 39 -14.3 6.3
11:15 1021 30.15 851 25.13 -2.2 28.1 39 -14.3 6.3
11:20 1021 30.15 851 25.13 -2.2 28 38 -14.6 5.8
11:25 1021 30.15 851 25.13 -2.1 28.2 38 -14.6 5.7
11:30 1022 30.18 851 25.13 -2.1 28.3 38 -14.5 5.8
11:35 1022 30.18 851 25.13 -2 28.4 38 -14.7 5.6
11:40 1022 30.18 851 25.13 -2 28.4 37 -14.8 5.3
11:45 1022 30.18 851 25.13 -2 28.5 38 -14.6 5.6
11:50 1022 30.18 851 25.13 -1.9 28.7 37 -14.8 5.4
11:55 1022 30.18 851 25.13 -1.9 28.6 38 -14.4 6
12:00 1022 30.18 851 25.13 -1.9 28.6 37 -14.7 5.5
12:05 1022 30.18 851 25.13 -1.8 28.8 38 -14.5 5.9
12:10 1022 30.18 851 25.13 -1.8 28.7 37 -14.5 5.8
12:15 1021 30.15 851 25.13 -1.8 28.8 37 -14.6 5.8
12:20 1022 30.18 851 25.13 -1.8 28.8 39 -14.2 6.5
12:25 1022 30.18 851 25.13 -1.8 28.8 40 -13.8 7.1
12:30 1022 30.18 851 25.13 -1.7 28.9 36 -14.9 5.2
12:35 1022 30.18 851 25.13 -1.7 29 37 -14.6 5.8
12:40 1022 30.18 851 25.13 -1.6 29.2 37 -14.6 5.7
12:45 1022 30.18 851 25.13 -1.5 29.3 37 -14.5 5.9
12:50 1022 30.18 851 25.13 -1.5 29.3 38 -14 6.8
12:55 1022 30.18 851 25.13 -1.5 29.4 37 -14.3 6.3
13:00 1022 30.18 851 25.13 -1.5 29.3 37 -14.4 6.1
13:05 1022 30.18 851 25.13 -1.4 29.4 37 -14.3 6.3
13:10 1022 30.18 851 25.13 -1.3 29.6 37 -14.4 6.1
13:15 1022 30.18 851 25.13 -1.3 29.7 37 -14.3 6.3
13:20 1022 30.18 851 25.13 -1.2 29.8 36 -14.5 5.9
13:25 1022 30.18 851 25.13 -1.3 29.6 36 -14.5 5.9
13:30 1022 30.18 851 25.13 -1.2 29.8 35 -14.8 5.3
13:35 1022 30.18 851 25.13 -1.4 29.5 34 -15.4 4.3
13:40 1022 30.18 851 25.13 -1.3 29.6 34 -15.2 4.6
13:45 1022 30.18 852 25.16 -1.2 29.8 34 -15.2 4.7
13:50 1022 30.18 852 25.16 -1.2 29.9 36 -14.5 6
13:55 1022 30.18 852 25.16 -1.3 29.7 36 -14.6 5.6
14:00 1022 30.18 852 25.16 -1.3 29.6 36 -14.5 5.9
14:05 1022 30.18 852 25.16 -1.2 29.8 33 -15.4 4.3
14:10 1023 30.21 852 25.16 -1.3 29.7 35 -15 5
14:15 1023 30.21 852 25.16 -1.4 29.5 35 -14.9 5.1
14:20 1023 30.21 852 25.16 -1.4 29.4 33 -15.6 3.9
14:25 1023 30.21 852 25.16 -1.4 29.5 34 -15.4 4.4
14:30 1023 30.21 852 25.16 -1.2 29.8 34 -15.2 4.6
14:35 1023 30.21 852 25.16 -1.4 29.6 35 -15 5
14:40 1023 30.21 852 25.16 -1.3 29.6 36 -14.7 5.5
14:45 1023 30.21 852 25.16 -1.5 29.2 35 -15 4.9
14:50 1023 30.21 852 25.16 -1.5 29.3 36 -14.6 5.7
14:55 1023 30.21 852 25.16 -1.7 29 36 -14.9 5.2
15:00 1023 30.21 852 25.16 -1.7 28.9 38 -14.2 6.5
15:05 1023 30.21 853 25.19 -1.7 29 37 -14.5 5.8
15:10 1023 30.21 853 25.19 -1.7 29 38 -14.4 6.1
15:15 1023 30.21 853 25.19 -1.8 28.7 38 -14.4 6.1
15:20 1024 30.24 853 25.19 -1.8 28.7 39 -14.2 6.5
15:25 1024 30.24 853 25.19 -1.7 28.9 37 -14.6 5.7
15:30 1024 30.24 853 25.19 -1.8 28.8 37 -14.6 5.7
15:35 1024 30.24 853 25.19 -1.9 28.6 36 -15.1 4.7
15:40 1024 30.24 853 25.19 -1.9 28.6 35 -15.4 4.2
15:45 1024 30.24 853 25.19 -1.8 28.7 35 -15.6 4
15:50 1024 30.24 853 25.19 -1.8 28.8 35 -15.4 4.4
15:55 1024 30.24 853 25.19 -1.8 28.8 33 -16 3.2
16:00 1024 30.24 853 25.19 -1.9 28.5 33 -16.1 3.1
16:05 1024 30.24 853 25.19 -1.9 28.6 33 -16.1 3
16:10 1024 30.24 854 25.22 -2 28.5 35 -15.5 4.1
16:15 1024 30.24 854 25.22 -2.2 28 35 -15.9 3.4
16:20 1025 30.27 854 25.22 -2.1 28.1 36 -15.5 4.2
16:25 1025 30.27 854 25.22 -2.3 27.8 36 -15.4 4.3
16:30 1025 30.27 854 25.22 -2.6 27.3 36 -15.7 3.7
16:35 1025 30.27 854 25.22 -2.9 26.8 37 -15.6 4
16:40 1025 30.27 854 25.22 -3.2 26.3 38 -15.5 4.1
16:45 1025 30.27 854 25.22 -3.4 25.9 39 -15.5 4.1
16:50 1025 30.27 854 25.22 -3.4 25.8 39 -15.4 4.3
16:55 1025 30.27 854 25.22 -3.5 25.6 40 -15.3 4.5
17:00 1025 30.27 854 25.22 -3.8 25.2 41 -15.4 4.4
17:05 1025 30.27 854 25.22 -3.8 25.2 40 -15.5 4.1
17:10 1025 30.27 854 25.22 -3.8 25.1 40 -15.4 4.2
17:15 1025 30.27 854 25.22 -4 24.9 41 -15.4 4.2
17:20 1025 30.27 854 25.22 -4 24.8 41 -15.5 4
17:25 1025 30.27 855 25.25 -4 24.9 41 -15.5 4.2
17:30 1025 30.27 854 25.22 -3.8 25.1 40 -15.7 3.8
17:35 1025 30.27 855 25.25 -3.9 25.1 39 -16 3.2
17:40 1025 30.27 854 25.22 -3.8 25.1 39 -15.9 3.4
17:45 1025 30.27 855 25.25 -4 24.8 38 -16.2 2.8
17:50 1025 30.27 855 25.25 -4.1 24.6 38 -16.5 2.3
17:55 1025 30.27 855 25.25 -4 24.9 37 -16.5 2.2
18:00 1026 30.3 855 25.25 -4.1 24.7 38 -16.4 2.6
18:05 1026 30.3 855 25.25 -4.1 24.5 38 -16.6 2.1
18:10 1026 30.3 855 25.25 -4.4 24.1 39 -16.4 2.4
18:15 1026 30.3 855 25.25 -4.5 23.9 39 -16.6 2.1
18:20 1026 30.3 855 25.25 -4.4 24.1 38 -16.6 2.2
18:25 1026 30.3 855 25.25 -4.4 24.2 39 -16.5 2.3
18:30 1026 30.3 855 25.25 -4.3 24.3 38 -16.5 2.4
18:35 1026 30.3 855 25.25 -4.3 24.3 39 -16.4 2.6
18:40 1026 30.3 855 25.25 -4.3 24.3 39 -16.2 2.8
18:45 1026 30.3 856 25.28 -4.4 24.1 41 -15.9 3.4
18:50 1027 30.33 856 25.28 -5.4 22.2 46 -15.2 4.6
18:55 1027 30.33 856 25.28 -6.1 21.1 47 -15.5 4
19:00 1027 30.33 856 25.28 -6.2 20.9 48 -15.6 4
19:05 1027 30.33 856 25.28 -6.2 20.8 48 -15.6 3.9
19:10 1027 30.33 856 25.28 -6.2 20.9 48 -15.6 3.9
19:15 1027 30.33 856 25.28 -6 21.1 47 -15.7 3.8
19:20 1027 30.33 856 25.28 -5.9 21.4 46 -15.6 3.9
19:25 1027 30.33 856 25.28 -5.7 21.8 45 -15.8 3.6
19:30 1027 30.33 856 25.28 -5.4 22.3 44 -15.7 3.7
19:35 1027 30.33 856 25.28 -5.3 22.5 44 -15.7 3.8
19:40 1027 30.33 856 25.28 -5.2 22.6 43 -16 3.3
19:45 1027 30.33 856 25.28 -4.9 23.2 41 -16.1 3
19:50 1027 30.33 856 25.28 -4.7 23.6 41 -16 3.1
19:55 1027 30.33 856 25.28 -4.8 23.4 42 -15.8 3.5
20:00 1027 30.33 856 25.28 -4.9 23.1 43 -15.8 3.6
20:05 1027 30.33 857 25.31 -5.3 22.5 46 -15.3 4.5
20:10 1027 30.33 857 25.31 -5.9 21.4 46 -15.7 3.7
20:15 1027 30.33 857 25.31 -5.8 21.5 46 -15.8 3.6
20:20 1028 30.36 857 25.31 -6.2 20.9 48 -15.6 3.9
20:25 1028 30.36 857 25.31 -6.6 20.2 47 -16.2 2.8
20:30 1028 30.36 857 25.31 -6.5 20.3 50 -15.3 4.5
20:35 1028 30.36 857 25.31 -6.3 20.7 46 -16.1 3
20:40 1028 30.36 857 25.31 -6.2 20.9 46 -16 3.2
20:45 1028 30.36 857 25.31 -6.4 20.4 47 -16.1 3.1
20:50 1028 30.36 857 25.31 -6.2 20.8 45 -16.3 2.6
20:55 1028 30.36 857 25.31 -6.2 20.9 46 -16 3.2
21:00 1028 30.36 857 25.31 -6.5 20.4 49 -15.5 4.1
21:05 1028 30.36 857 25.31 -7.3 18.9 50 -16 3.2
21:10 1028 30.36 857 25.31 -7.7 18.1 49 -16.8 1.8
21:15 1028 30.36 857 25.31 -7.7 18.2 49 -16.7 2
21:20 1028 30.36 857 25.31 -8.2 17.3 52 -16.3 2.7
21:25 1028 30.36 857 25.31 -8.1 17.5 50 -16.7 1.9
21:30 1028 30.36 857 25.31 -8.5 16.7 53 -16.4 2.6
21:35 1028 30.36 858 25.34 -8.5 16.6 52 -16.6 2
21:40 1028 30.36 858 25.34 -8.5 16.7 51 -16.9 1.6
21:45 1028 30.36 858 25.34 -8.4 16.8 51 -16.8 1.7
21:50 1028 30.36 858 25.34 -8.8 16.2 51 -17.2 1
21:55 1028 30.36 858 25.34 -9 15.9 54 -16.6 2.1
22:00 1028 30.36 858 25.34 -8.7 16.3 49 -17.7 0.2
22:05 1028 30.36 858 25.34 -7.7 18.2 49 -16.6 2.2
22:10 1029 30.39 858 25.34 -7.5 18.5 45 -17.6 0.3
22:15 1029 30.39 858 25.34 -7.4 18.8 44 -17.6 0.3
22:20 1029 30.39 858 25.34 -7.2 19 45 -17.2 1.1
22:25 1029 30.39 858 25.34 -8.4 17 48 -17.6 0.4
22:30 1029 30.39 858 25.34 -8.7 16.3 47 -18.2 -0.7
22:35 1029 30.39 858 25.34 -8.7 16.4 49 -17.7 0.2
22:40 1029 30.39 858 25.34 -8.9 16.1 49 -17.8 0
22:45 1029 30.39 858 25.34 -8.8 16.2 47 -18.2 -0.8
22:50 1029 30.39 858 25.34 -8.9 16.1 48 -18 -0.4
22:55 1029 30.39 858 25.34 -9 15.9 47 -18.2 -0.8
23:00 1029 30.39 858 25.34 -9 15.7 48 -18.1 -0.6
23:05 1029 30.39 858 25.34 -9 15.8 49 -17.8 -0
23:10 1029 30.39 858 25.34 -9 15.8 45 -18.8 -1.8
23:15 1029 30.39 858 25.34 -9.1 15.6 48 -18.3 -1
23:20 1029 30.39 858 25.34 -9.3 15.4 46 -18.8 -1.9
23:25 1029 30.39 858 25.34 -9.3 15.4 46 -18.8 -1.9
23:30 1029 30.39 858 25.34 -9.2 15.4 47 -18.7 -1.6
23:35 1029 30.39 858 25.34 -9.5 15 46 -19.1 -2.4
23:40 1029 30.39 858 25.34 -9.7 14.5 47 -19.1 -2.3
23:45 1029 30.39 858 25.34 -10 14.1 48 -19 -2.3
23:50 1029 30.39 858 25.34 -10.1 13.8 48 -19.1 -2.4
23:55 1029 30.39 858 25.34 -9.8 14.4 47 -19.1 -2.4
24:00 1029 30.39 858 25.34 -9.7 14.6 49 -18.5 -1.4